Time;durP1;ratioP1;P1;durP2;ratioP2;P2;SDS_P1;SDS_P2;PMS_P1;PMS_P2;Temp;Humidity;BMP_temperature;BMP_pressure;BME280_temperature;BME280_humidity;BME280_pressure;Samples;Min_cycle;Max_cycle;Signal;HPM_P1;HPM_P2
2024/01/25 00:00:10;;;;;;;8.70;2.23;;;13.80;99.90;;;13.73;52.87;102336.06;6086758;22;98237;-38
2024/01/25 00:02:36;;;;;;;12.50;3.17;;;13.80;99.90;;;13.56;54.66;102340.84;6105546;22;98685;-36
2024/01/25 00:05:02;;;;;;;11.70;2.70;;;13.70;99.90;;;13.58;53.83;102336.38;6095694;22;102053;-38
2024/01/25 00:07:27;;;;;;;5.20;1.90;;;13.60;99.90;;;13.69;52.79;102326.44;6115077;22;102096;-38
2024/01/25 00:09:53;;;;;;;13.50;2.60;;;13.70;99.90;;;13.69;53.06;102327.31;6035855;22;97426;-38
2024/01/25 00:12:19;;;;;;;15.77;3.13;;;13.70;99.90;;;13.61;53.76;102333.69;6077937;22;100641;-38
2024/01/25 00:14:45;;;;;;;10.70;1.97;;;13.60;99.90;;;13.52;54.03;102339.19;6075173;22;101855;-37
2024/01/25 00:17:11;;;;;;;15.67;2.83;;;13.60;99.90;;;13.33;54.58;102334.28;6042420;22;103191;-38
2024/01/25 00:19:37;;;;;;;13.30;2.93;;;13.40;99.90;;;13.11;56.37;102327.63;6092820;22;98064;-38
2024/01/25 00:22:03;;;;;;;11.30;2.20;;;13.30;99.90;;;13.15;55.27;102337.25;6113277;22;99986;-39
2024/01/25 00:24:29;;;;;;;8.87;2.20;;;13.20;99.90;;;13.03;56.68;102341.03;6059755;22;101327;-37
2024/01/25 00:26:54;;;;;;;13.23;2.37;;;13.10;99.90;;;13.14;55.11;102338.16;6113061;22;97710;-38
2024/01/25 00:29:20;;;;;;;11.00;3.30;;;13.10;99.90;;;12.90;56.92;102343.94;6086972;22;109947;-38
2024/01/25 00:31:46;;;;;;;11.10;2.67;;;13.00;99.90;;;12.75;57.83;102334.50;6082562;22;111371;-37
2024/01/25 00:34:12;;;;;;;11.53;2.83;;;12.90;99.90;;;12.73;56.98;102329.22;6097448;22;100457;-38
2024/01/25 00:36:41;;;;;;;8.40;2.67;;;12.80;99.90;;;12.84;56.40;102333.44;6095331;22;98288;-38
2024/01/25 00:39:10;;;;;;;10.13;2.37;;;13.00;99.90;;;12.63;58.25;102334.72;6114012;22;97690;-39
2024/01/25 00:41:39;;;;;;;18.97;3.37;;;12.90;99.90;;;12.70;56.68;102334.56;6107382;22;99633;-40
2024/01/25 00:44:05;;;;;;;13.73;2.33;;;12.80;99.90;;;12.57;58.38;102330.38;6100954;22;98358;-37
2024/01/25 00:46:31;;;;;;;12.60;2.63;;;12.90;99.90;;;12.42;59.22;102347.41;6085919;22;98805;-38
2024/01/25 00:48:58;;;;;;;11.63;2.27;;;12.70;99.90;;;12.27;59.84;102341.47;6078329;22;99999;-39
2024/01/25 00:51:24;;;;;;;14.20;2.83;;;12.50;99.90;;;12.39;58.15;102331.56;6094522;22;98711;-36
2024/01/25 00:53:50;;;;;;;13.47;2.10;;;12.50;99.90;;;12.29;59.41;102339.69;6115715;22;101039;-38
2024/01/25 00:56:19;;;;;;;13.17;3.33;;;12.60;99.90;;;12.33;59.10;102344.91;6087233;22;105090;-37
2024/01/25 00:58:46;;;;;;;9.60;1.87;;;12.60;99.90;;;12.09;60.58;102343.53;6116182;22;98090;-36
2024/01/25 01:01:12;;;;;;;8.97;2.70;;;12.40;99.90;;;12.26;59.67;102334.44;5982633;22;107357;-37
2024/01/25 01:03:41;;;;;;;13.63;2.23;;;12.40;99.90;;;12.05;60.69;102336.53;6043237;22;98724;-38
2024/01/25 01:06:08;;;;;;;8.93;2.73;;;12.30;99.90;;;11.99;61.14;102344.53;6057939;22;107776;-37
2024/01/25 01:08:34;;;;;;;20.40;4.13;;;12.20;99.90;;;11.85;61.53;102359.75;6080876;22;98037;-38
2024/01/25 01:11:00;;;;;;;10.80;2.10;;;12.10;99.90;;;11.74;62.14;102356.34;6097198;22;99388;-37
2024/01/25 01:13:25;;;;;;;18.77;2.57;;;12.00;99.90;;;11.94;60.77;102356.97;6077504;22;99002;-36
2024/01/25 01:15:54;;;;;;;5.97;2.03;;;12.10;99.90;;;11.84;61.35;102353.56;6090393;22;109030;-36
2024/01/25 01:18:20;;;;;;;18.63;2.30;;;12.00;99.90;;;11.94;60.62;102364.91;6087969;22;97741;-36
2024/01/25 01:20:47;;;;;;;12.23;2.00;;;12.20;99.90;;;12.03;60.41;102354.22;6097339;22;98235;-37
2024/01/25 01:23:16;;;;;;;13.77;3.03;;;12.20;99.90;;;11.91;61.15;102360.53;6084317;22;98823;-39
2024/01/25 01:25:44;;;;;;;6.73;2.17;;;12.20;99.90;;;11.88;61.12;102365.00;6114164;22;100121;-37
2024/01/25 01:28:10;;;;;;;16.53;3.57;;;12.10;99.90;;;11.83;61.24;102361.53;6086351;22;97271;-38
2024/01/25 01:30:41;;;;;;;16.43;2.77;;;12.10;99.90;;;11.80;61.36;102362.47;6049483;22;119519;-38
2024/01/25 01:33:10;;;;;;;14.60;2.73;;;12.10;99.90;;;11.96;60.82;102363.13;6065635;22;104970;-38
2024/01/25 01:35:36;;;;;;;9.90;2.47;;;12.20;99.90;;;11.93;60.60;102357.88;6063631;22;98101;-38
2024/01/25 01:38:02;;;;;;;15.67;2.60;;;12.20;99.90;;;12.09;58.81;102356.75;6094590;22;97491;-38
2024/01/25 01:40:28;;;;;;;12.00;2.50;;;12.20;99.90;;;12.15;59.83;102358.41;6097756;22;97817;-38
2024/01/25 01:43:01;;;;;;;10.90;2.90;;;12.30;99.90;;;12.16;59.75;102358.41;6107691;22;97873;-38
2024/01/25 01:45:27;;;;;;;14.40;2.83;;;12.30;99.90;;;12.22;59.05;102362.72;6148240;22;97188;-37
2024/01/25 01:47:54;;;;;;;12.90;2.87;;;12.30;99.90;;;12.23;59.06;102367.13;6100031;22;97806;-39
2024/01/25 01:50:22;;;;;;;8.73;2.60;;;12.40;99.90;;;12.29;58.85;102367.00;6143915;22;98102;-36
2024/01/25 01:52:50;;;;;;;12.27;2.57;;;12.40;99.90;;;12.39;58.52;102362.47;6102003;22;101638;-39
2024/01/25 01:55:17;;;;;;;13.10;2.30;;;12.50;99.90;;;12.18;59.50;102364.56;6114970;22;97677;-35
2024/01/25 01:57:44;;;;;;;9.07;2.17;;;12.40;99.90;;;12.38;57.95;102366.00;6139891;22;97300;-38
2024/01/25 02:00:14;;;;;;;15.23;3.17;;;12.40;99.90;;;12.32;58.48;102367.00;6121964;22;97922;-37
2024/01/25 02:02:40;;;;;;;9.33;2.27;;;12.40;99.90;;;12.26;58.90;102376.78;6115866;22;101341;-34
2024/01/25 02:05:06;;;;;;;11.70;2.80;;;12.40;99.90;;;12.24;59.25;102368.00;6136082;22;97314;-38
2024/01/25 02:07:32;;;;;;;14.27;2.37;;;12.30;99.90;;;12.07;59.44;102381.47;6113213;22;97564;-37
2024/01/25 02:09:58;;;;;;;14.03;2.20;;;12.30;99.90;;;11.88;60.37;102387.03;6146210;22;104714;-36
2024/01/25 02:12:23;;;;;;;7.60;2.17;;;12.10;99.90;;;12.01;59.77;102386.88;6086694;22;127108;-38
2024/01/25 02:14:49;;;;;;;10.77;1.90;;;12.10;99.90;;;12.08;59.41;102384.09;6098184;22;97426;-35
2024/01/25 02:17:15;;;;;;;8.17;1.80;;;12.10;99.90;;;12.28;58.18;102389.09;6093577;22;105081;-38
2024/01/25 02:19:41;;;;;;;11.73;2.77;;;12.30;99.90;;;12.31;58.55;102396.13;6138772;22;99028;-41
2024/01/25 02:22:07;;;;;;;11.17;2.13;;;12.40;99.90;;;12.37;57.83;102394.25;6142118;22;98852;-38
2024/01/25 02:24:33;;;;;;;10.57;2.60;;;12.50;99.90;;;12.44;57.40;102392.34;6140133;22;101418;-37
2024/01/25 02:26:58;;;;;;;16.43;2.30;;;12.60;99.90;;;12.46;57.74;102396.75;6147138;22;97368;-38
2024/01/25 02:29:27;;;;;;;13.50;1.83;;;12.50;99.90;;;12.42;57.96;102410.03;6140886;22;99735;-37
2024/01/25 02:31:53;;;;;;;10.80;2.70;;;12.50;99.90;;;12.34;58.62;102417.25;6141774;22;125461;-38
2024/01/25 02:34:21;;;;;;;20.33;2.97;;;12.50;99.90;;;12.50;57.47;102414.34;6122035;22;97565;-37
2024/01/25 02:36:47;;;;;;;11.83;2.87;;;12.50;99.90;;;12.44;58.20;102418.81;6101600;22;97387;-38
2024/01/25 02:39:13;;;;;;;12.03;2.23;;;12.50;99.90;;;12.23;59.42;102427.97;6110023;22;127374;-38
2024/01/25 02:41:39;;;;;;;15.93;2.73;;;12.40;99.90;;;11.97;60.62;102435.41;6140096;22;98826;-38
2024/01/25 02:44:04;;;;;;;9.83;2.30;;;12.20;99.90;;;11.92;60.84;102430.19;6145755;22;97539;-34
2024/01/25 02:46:30;;;;;;;12.90;2.37;;;12.10;99.90;;;11.84;60.95;102426.75;6126770;22;104000;-37
2024/01/25 02:48:56;;;;;;;11.47;2.40;;;12.00;99.90;;;11.88;60.78;102434.63;6099162;22;97387;-38
2024/01/25 02:51:22;;;;;;;15.30;2.40;;;12.00;99.90;;;11.98;60.75;102421.28;6138715;22;113133;-37
2024/01/25 02:53:48;;;;;;;16.63;2.70;;;12.10;99.90;;;12.01;60.16;102419.50;6115091;22;97441;-38
2024/01/25 02:56:13;;;;;;;9.60;2.50;;;12.20;99.90;;;11.77;61.71;102433.00;6141302;22;97698;-38
2024/01/25 02:58:39;;;;;;;15.97;3.07;;;12.00;99.90;;;11.97;59.44;102433.63;6121363;22;105380;-36
2024/01/25 03:01:05;;;;;;;11.50;2.53;;;12.00;99.90;;;11.93;60.65;102431.94;6118691;22;102348;-39
2024/01/25 03:03:31;;;;;;;13.83;3.03;;;12.00;99.90;;;11.88;61.32;102428.47;6142960;22;97372;-36
2024/01/25 03:05:57;;;;;;;9.93;2.30;;;12.10;99.90;;;11.81;61.94;102421.50;6140833;22;97824;-37
2024/01/25 03:08:22;;;;;;;11.60;2.90;;;12.00;99.90;;;11.99;59.98;102418.59;6138924;22;123404;-39
2024/01/25 03:10:49;;;;;;;18.00;3.37;;;12.00;99.90;;;11.92;61.24;102416.97;6139255;22;97922;-36
2024/01/25 03:13:16;;;;;;;10.67;2.00;;;12.10;99.90;;;11.89;61.61;102419.66;6125312;22;105548;-37
2024/01/25 03:15:43;;;;;;;17.57;3.00;;;12.00;99.90;;;11.76;62.21;102408.31;6117269;22;97305;-35
2024/01/25 03:18:12;;;;;;;9.47;2.13;;;11.90;99.90;;;12.13;59.20;102395.47;6138390;22;104233;-37
2024/01/25 03:20:38;;;;;;;17.73;2.60;;;12.10;99.90;;;12.09;60.37;102393.78;6111636;22;97201;-35
2024/01/25 03:23:04;;;;;;;19.47;2.73;;;12.20;99.90;;;12.24;59.28;102394.47;6142515;22;98326;-37
2024/01/25 03:25:31;;;;;;;13.80;3.00;;;12.30;99.90;;;12.11;60.43;102405.22;6134136;22;105690;-36
2024/01/25 03:27:57;;;;;;;16.13;3.03;;;12.20;99.90;;;12.27;58.84;102395.28;6136503;22;97992;-34
2024/01/25 03:30:22;;;;;;;14.80;3.07;;;12.30;99.90;;;12.36;58.18;102394.28;6111158;22;98846;-47
2024/01/25 03:32:48;;;;;;;16.77;2.90;;;12.40;99.90;;;12.10;60.01;102403.47;6111783;22;100345;-46
2024/01/25 03:35:14;;;;;;;11.67;2.57;;;12.30;99.90;;;12.06;60.25;102407.06;6100022;22;104630;-36
2024/01/25 03:37:40;;;;;;;17.20;2.37;;;12.20;99.90;;;11.97;60.67;102412.47;6138133;22;105669;-37
2024/01/25 03:40:06;;;;;;;7.73;1.97;;;12.10;99.90;;;12.04;59.95;102414.16;6128628;22;97531;-35
2024/01/25 03:42:32;;;;;;;12.40;2.20;;;12.10;99.90;;;11.98;60.45;102424.78;6123440;22;97579;-35
2024/01/25 03:44:58;;;;;;;18.03;2.97;;;12.10;99.90;;;12.01;60.53;102424.78;6138884;22;97603;-37
2024/01/25 03:47:24;;;;;;;15.77;2.60;;;12.00;99.90;;;11.75;61.07;102437.41;6137050;22;97915;-36
2024/01/25 03:49:49;;;;;;;14.23;2.97;;;11.90;99.90;;;11.91;60.80;102434.59;6113863;22;127211;-37
2024/01/25 03:52:18;;;;;;;11.87;2.50;;;11.90;99.90;;;11.80;61.13;102446.19;6097476;22;97794;-38
2024/01/25 03:54:44;;;;;;;10.67;2.47;;;11.80;99.90;;;11.67;61.65;102439.28;6112098;22;97443;-36
2024/01/25 03:57:10;;;;;;;8.27;2.27;;;11.80;99.90;;;11.64;61.88;102440.19;6138115;22;127691;-37
2024/01/25 03:59:35;;;;;;;19.50;4.67;;;11.80;99.90;;;11.54;62.16;102434.13;6139515;22;99531;-37
2024/01/25 04:02:01;;;;;;;17.17;3.17;;;11.70;99.90;;;11.42;62.57;102436.03;6136468;22;97484;-36
2024/01/25 04:04:27;;;;;;;14.43;3.10;;;11.60;99.90;;;11.44;62.42;102444.84;6114845;22;97643;-37
2024/01/25 04:06:53;;;;;;;18.13;2.80;;;11.50;99.90;;;11.38;62.84;102453.69;6129745;22;104909;-42
2024/01/25 04:09:18;;;;;;;9.57;3.23;;;11.50;99.90;;;11.44;62.68;102448.34;6141730;22;102379;-42
2024/01/25 04:11:44;;;;;;;12.83;2.10;;;11.50;99.90;;;11.39;62.48;102451.91;6141771;22;97538;-39
2024/01/25 04:14:10;;;;;;;14.53;2.27;;;11.50;99.90;;;11.41;62.68;102456.28;6142247;22;97026;-39
2024/01/25 04:16:36;;;;;;;15.57;2.57;;;11.50;99.90;;;11.36;62.89;102450.19;6141208;22;97813;-36
2024/01/25 04:19:04;;;;;;;6.80;2.00;;;11.50;99.90;;;11.27;63.04;102437.94;6140893;22;97679;-36
2024/01/25 04:21:30;;;;;;;18.83;2.67;;;11.40;99.90;;;11.16;63.55;102452.16;6138753;22;97463;-39
2024/01/25 04:23:56;;;;;;;14.37;2.70;;;11.40;99.90;;;11.21;63.53;102460.91;6139082;22;102756;-36
2024/01/25 04:26:22;;;;;;;16.90;3.37;;;11.30;99.90;;;11.15;63.89;102468.91;6138002;22;104643;-37
2024/01/25 04:28:48;;;;;;;16.13;3.70;;;11.30;99.90;;;11.31;62.96;102467.88;6111800;22;111178;-38
2024/01/25 04:31:13;;;;;;;18.63;2.70;;;11.30;99.90;;;11.18;63.68;102468.88;6125934;22;105122;-38
2024/01/25 04:33:40;;;;;;;11.77;2.60;;;11.30;99.90;;;11.25;63.39;102465.25;6106497;22;105683;-39
2024/01/25 04:36:06;;;;;;;11.77;2.50;;;11.30;99.90;;;11.25;63.32;102473.19;6139866;22;98081;-37
2024/01/25 04:38:32;;;;;;;18.97;3.53;;;11.40;99.90;;;11.15;63.65;102466.28;6107366;22;100861;-37
2024/01/25 04:40:58;;;;;;;17.03;3.03;;;11.20;99.90;;;11.25;63.43;102467.91;6133207;22;97805;-37
2024/01/25 04:43:24;;;;;;;13.17;3.00;;;11.20;99.90;;;11.26;63.67;102469.66;6128601;22;97450;-37
2024/01/25 04:45:50;;;;;;;11.83;2.30;;;11.20;99.90;;;11.27;63.21;102467.00;6144054;22;99708;-41
2024/01/25 04:48:16;;;;;;;14.07;2.43;;;11.20;99.90;;;11.41;62.58;102461.56;6143530;22;99675;-46
2024/01/25 04:50:42;;;;;;;23.63;3.60;;;11.30;99.90;;;11.46;62.30;102451.84;6143412;22;97146;-35
2024/01/25 04:53:07;;;;;;;21.37;2.93;;;11.40;99.90;;;11.51;61.82;102455.31;6142416;22;99751;-36
2024/01/25 04:55:33;;;;;;;22.63;2.87;;;11.40;99.90;;;11.53;61.70;102456.16;6141012;22;105325;-37
2024/01/25 04:57:59;;;;;;;14.40;3.20;;;11.40;99.90;;;11.56;61.75;102461.41;6141547;22;107196;-38
2024/01/25 05:00:24;;;;;;;16.07;2.93;;;11.40;99.90;;;11.48;61.74;102463.28;6114417;22;112714;-38
2024/01/25 05:02:50;;;;;;;16.47;3.17;;;11.40;99.90;;;11.52;61.77;102459.69;6147783;22;97313;-38
2024/01/25 05:05:16;;;;;;;12.90;2.53;;;11.40;99.90;;;11.61;61.00;102464.91;6142970;22;101545;-42
2024/01/25 05:07:42;;;;;;;19.63;2.80;;;11.40;99.90;;;11.54;60.95;102468.47;6141225;22;115935;-36
2024/01/25 05:10:08;;;;;;;12.70;2.50;;;11.40;99.90;;;11.61;60.85;102470.19;6141199;22;97942;-35
2024/01/25 05:12:34;;;;;;;17.27;2.90;;;11.40;99.90;;;11.58;60.89;102485.22;6142856;22;97427;-37
2024/01/25 05:15:00;;;;;;;15.60;2.87;;;11.40;99.90;;;11.54;60.52;102479.06;6140486;22;98478;-37
2024/01/25 05:17:26;;;;;;;11.23;2.53;;;11.30;99.90;;;11.50;59.58;102473.81;6110016;22;126715;-34
2024/01/25 05:19:51;;;;;;;15.93;3.00;;;11.30;99.90;;;11.38;58.81;102472.19;6126508;22;97410;-38
2024/01/25 05:22:17;;;;;;;13.60;2.57;;;11.10;99.90;;;11.26;59.32;102464.38;6109143;22;102660;-37
2024/01/25 05:24:43;;;;;;;9.97;2.67;;;11.00;99.90;;;11.18;59.09;102463.59;6136351;22;97887;-38
2024/01/25 05:27:10;;;;;;;13.17;2.37;;;10.90;99.90;;;11.06;59.22;102466.34;6112796;22;98952;-38
2024/01/25 05:29:35;;;;;;;16.90;3.70;;;10.80;99.90;;;10.93;58.96;102470.84;6139237;22;104098;-38
2024/01/25 05:32:01;;;;;;;10.93;2.43;;;10.60;99.90;;;10.79;59.33;102465.69;6141596;22;109112;-38
2024/01/25 05:34:27;;;;;;;11.37;3.03;;;10.50;99.90;;;10.69;59.84;102461.34;6145266;22;113755;-37
2024/01/25 05:36:53;;;;;;;14.83;2.67;;;10.40;99.90;;;10.56;59.51;102454.41;6142339;22;97526;-37
2024/01/25 05:39:20;;;;;;;10.13;2.77;;;10.30;99.90;;;10.49;59.85;102460.63;6143395;22;97432;-38
2024/01/25 05:41:46;;;;;;;18.63;2.70;;;10.20;99.90;;;10.40;60.52;102459.78;6144904;22;97380;-37
2024/01/25 05:44:13;;;;;;;17.40;2.53;;;10.10;99.90;;;10.55;62.87;102450.00;6139103;22;97918;-38
2024/01/25 05:46:38;;;;;;;12.43;2.73;;;10.20;99.90;;;10.82;62.33;102452.44;6140455;22;116069;-38
2024/01/25 05:49:04;;;;;;;11.70;2.27;;;10.40;99.90;;;10.95;61.98;102448.81;6144110;22;97669;-38
2024/01/25 05:51:30;;;;;;;18.27;3.10;;;10.60;99.90;;;11.08;60.76;102449.59;6144360;22;97705;-37
2024/01/25 05:53:56;;;;;;;16.43;3.00;;;10.70;99.90;;;11.23;60.93;102454.72;6129933;22;99294;-37
2024/01/25 05:56:22;;;;;;;14.43;2.23;;;10.80;99.90;;;11.14;59.72;102460.09;6143253;22;98950;-37
2024/01/25 05:58:48;;;;;;;10.23;2.30;;;10.80;99.90;;;11.16;59.61;102468.03;6144085;22;97059;-38
2024/01/25 06:01:14;;;;;;;12.13;2.57;;;10.80;99.90;;;11.23;59.80;102469.69;6142749;22;97148;-36
2024/01/25 06:03:43;;;;;;;12.43;3.00;;;10.90;99.90;;;11.23;58.57;102469.69;6141482;22;99759;-37
2024/01/25 06:06:09;;;;;;;12.53;2.23;;;10.90;99.90;;;11.14;58.83;102485.63;6142404;22;103946;-36
2024/01/25 06:08:35;;;;;;;11.57;2.33;;;10.80;99.90;;;11.17;59.13;102490.91;6129715;22;112581;-38
2024/01/25 06:11:00;;;;;;;9.87;2.70;;;10.70;99.90;;;10.95;57.96;102487.56;6119400;22;97254;-38
2024/01/25 06:13:26;;;;;;;15.43;2.50;;;10.60;99.90;;;10.84;58.46;102481.47;6161492;22;118207;-37
2024/01/25 06:15:52;;;;;;;12.37;2.27;;;10.40;99.90;;;10.66;57.62;102482.50;6103085;22;118409;-38
2024/01/25 06:18:18;;;;;;;11.23;2.17;;;10.30;99.90;;;10.50;57.71;102486.13;6139322;22;107531;-37
2024/01/25 06:20:44;;;;;;;15.53;3.37;;;10.20;99.90;;;10.33;57.63;102488.88;6142014;22;97397;-37
2024/01/25 06:23:09;;;;;;;16.97;2.67;;;10.00;99.90;;;10.18;58.13;102505.63;6138915;22;105790;-34
2024/01/25 06:25:36;;;;;;;7.77;2.10;;;9.90;99.90;;;10.04;58.18;102492.50;6142730;22;122892;-37
2024/01/25 06:28:03;;;;;;;14.30;2.23;;;9.70;99.90;;;9.92;58.60;102494.31;6118001;22;97476;-37
2024/01/25 06:30:29;;;;;;;10.13;2.60;;;9.60;99.90;;;9.81;59.08;102505.75;6130209;22;101510;-38
2024/01/25 06:32:58;;;;;;;14.13;2.73;;;9.50;99.90;;;9.73;59.04;102502.28;6140957;22;113448;-42
2024/01/25 06:35:23;;;;;;;8.03;2.20;;;9.50;99.90;;;9.65;58.55;102504.03;6126183;22;110238;-36
2024/01/25 06:37:49;;;;;;;8.07;2.57;;;9.40;99.90;;;9.62;59.94;102506.69;6140559;22;97134;-37
2024/01/25 06:40:15;;;;;;;13.53;3.20;;;9.30;99.90;;;9.57;60.30;102513.75;6144301;22;100870;-37
2024/01/25 06:42:42;;;;;;;11.60;2.40;;;9.30;99.90;;;9.56;60.36;102514.63;6140277;22;99675;-37
2024/01/25 06:45:09;;;;;;;13.23;2.67;;;9.30;99.90;;;9.59;60.04;102517.25;6144125;22;99156;-37
2024/01/25 06:47:35;;;;;;;7.03;1.97;;;9.30;99.90;;;9.65;61.27;102519.84;6145391;22;97555;-37
2024/01/25 06:50:00;;;;;;;6.03;2.17;;;9.30;99.90;;;9.66;59.89;102516.34;6092344;22;106796;-36
2024/01/25 06:52:27;;;;;;;10.37;2.97;;;9.30;99.90;;;9.71;59.77;102522.50;6112543;22;118700;-36
2024/01/25 06:54:52;;;;;;;12.03;2.60;;;9.30;99.90;;;9.65;58.86;102530.41;6142287;22;99844;-38
2024/01/25 06:57:18;;;;;;;10.20;2.20;;;9.30;99.90;;;9.67;59.10;102531.28;6143275;22;98950;-36
2024/01/25 06:59:44;;;;;;;11.37;2.10;;;9.30;99.90;;;9.62;58.96;102540.94;6143068;22;104911;-37
2024/01/25 07:02:11;;;;;;;9.10;2.20;;;9.30;99.90;;;9.58;58.42;102547.13;6142795;22;121471;-37
2024/01/25 07:04:40;;;;;;;12.87;2.57;;;9.20;99.90;;;9.52;59.57;102549.75;6146730;22;101741;-36
2024/01/25 07:07:06;;;;;;;9.33;2.33;;;9.10;99.90;;;9.62;61.21;102545.34;6143994;22;97260;-36
2024/01/25 07:09:32;;;;;;;8.27;1.97;;;9.10;99.90;;;9.73;59.36;102539.19;6126811;22;97307;-35
2024/01/25 07:11:58;;;;;;;8.47;2.00;;;9.20;99.90;;;9.81;59.25;102547.03;6142224;22;109770;-37
2024/01/25 07:14:23;;;;;;;9.47;1.97;;;9.30;99.90;;;9.75;58.21;102542.69;6142357;22;97845;-36
2024/01/25 07:16:49;;;;;;;11.70;2.10;;;9.30;99.90;;;9.64;57.86;102539.19;6142868;22;107632;-37
2024/01/25 07:19:15;;;;;;;14.23;2.77;;;9.20;99.90;;;9.57;58.82;102549.75;6142291;22;101612;-35
2024/01/25 07:21:41;;;;;;;9.83;2.17;;;9.20;99.90;;;9.58;59.27;102543.59;6146354;22;108337;-37
2024/01/25 07:24:06;;;;;;;11.37;2.27;;;9.10;99.90;;;9.62;61.25;102546.22;6118507;22;103155;-43
2024/01/25 07:26:32;;;;;;;7.17;1.70;;;9.10;99.90;;;9.55;59.48;102557.66;6140934;22;105498;-37
2024/01/25 07:28:59;;;;;;;8.27;2.00;;;9.10;99.90;;;9.72;60.47;102561.16;6142617;22;109643;-37
2024/01/25 07:31:28;;;;;;;6.80;2.13;;;9.20;99.90;;;9.66;59.62;102565.53;6130413;22;99912;-35
2024/01/25 07:33:55;;;;;;;9.50;2.30;;;9.20;99.90;;;9.68;59.32;102571.66;6112512;22;99445;-39
2024/01/25 07:36:20;;;;;;;16.67;2.73;;;9.20;99.90;;;9.60;58.93;102560.28;6144272;22;98059;-36
2024/01/25 07:38:47;;;;;;;12.13;2.30;;;9.10;99.90;;;9.56;59.13;102555.91;6108862;22;97569;-37
2024/01/25 07:41:13;;;;;;;4.47;1.83;;;9.10;99.90;;;9.52;58.86;102561.16;6145353;22;101770;-36
2024/01/25 07:43:39;;;;;;;13.40;2.80;;;9.10;99.90;;;9.53;59.94;102556.75;6116608;22;103299;-37
2024/01/25 07:46:05;;;;;;;13.33;2.23;;;9.10;99.90;;;9.51;60.70;102564.66;6103379;22;112560;-38
2024/01/25 07:48:31;;;;;;;10.27;2.20;;;9.10;99.90;;;9.45;59.63;102564.69;6144984;22;97134;-38
2024/01/25 07:50:57;;;;;;;16.27;2.90;;;9.10;99.90;;;9.47;58.58;102567.31;6140736;22;99444;-37
2024/01/25 07:53:22;;;;;;;14.23;3.13;;;9.10;99.90;;;9.42;60.74;102558.56;6141315;22;99689;-34
2024/01/25 07:55:48;;;;;;;17.63;3.33;;;9.00;99.90;;;9.39;59.73;102561.16;6146692;22;97484;-37
2024/01/25 07:58:17;;;;;;;12.27;3.13;;;9.00;99.90;;;9.40;60.58;102577.00;6142121;22;105778;-37
2024/01/25 08:00:45;;;;;;;16.27;3.37;;;9.00;99.90;;;9.41;60.63;102575.25;6138378;22;118283;-37
2024/01/25 08:03:15;;;;;;;13.00;2.93;;;9.00;99.90;;;9.48;60.07;102569.06;5892588;22;98992;-37
2024/01/25 08:05:41;;;;;;;18.23;3.47;;;9.10;99.90;;;9.45;60.27;102569.09;5960776;22;98974;-37
2024/01/25 08:08:07;;;;;;;7.83;2.87;;;9.10;99.90;;;9.53;60.96;102577.84;6095875;22;99820;-42
2024/01/25 08:10:33;;;;;;;16.90;3.73;;;9.10;99.90;;;9.64;59.78;102581.34;6096683;22;99205;-38
2024/01/25 08:12:59;;;;;;;11.03;2.50;;;9.20;99.90;;;9.56;59.76;102582.25;6119541;22;122458;-42
2024/01/25 08:15:25;;;;;;;19.23;3.07;;;9.20;99.90;;;9.57;60.34;102584.88;6117516;22;97376;-41
2024/01/25 08:17:50;;;;;;;14.00;3.43;;;9.20;99.90;;;9.53;60.51;102578.72;6069532;22;106918;-38
2024/01/25 08:20:16;;;;;;;14.53;3.17;;;9.20;99.90;;;9.53;61.05;102572.56;6061976;22;108951;-37
2024/01/25 08:22:42;;;;;;;13.77;2.47;;;9.20;99.90;;;9.55;61.34;102576.09;6106265;22;98127;-38
2024/01/25 08:25:08;;;;;;;9.97;2.50;;;9.20;99.90;;;9.58;61.42;102576.09;6090523;22;98376;-35
2024/01/25 08:27:37;;;;;;;9.03;2.63;;;9.30;99.90;;;9.65;61.59;102577.84;6035684;22;97571;-37
2024/01/25 08:30:03;;;;;;;9.13;3.77;;;9.30;99.90;;;9.65;61.94;102571.69;6117214;22;99201;-37
2024/01/25 08:32:29;;;;;;;16.13;3.37;;;9.30;99.90;;;9.67;62.86;102576.06;6120233;22;98324;-37
2024/01/25 08:34:54;;;;;;;11.40;3.27;;;9.40;99.90;;;9.71;62.71;102566.41;6108170;22;97713;-37
2024/01/25 08:37:20;;;;;;;11.40;3.03;;;9.40;99.90;;;9.73;62.95;102565.53;6125351;22;97235;-37
2024/01/25 08:39:49;;;;;;;9.37;2.73;;;9.50;99.90;;;9.75;63.04;102566.41;6122556;22;100886;-37
2024/01/25 08:42:18;;;;;;;10.57;3.53;;;9.50;99.90;;;9.73;63.13;102568.16;6123206;22;97608;-37
2024/01/25 08:44:50;;;;;;;14.53;2.63;;;9.50;99.90;;;9.73;63.37;102559.38;6098138;22;97319;-36
2024/01/25 08:47:18;;;;;;;21.57;3.90;;;9.50;99.90;;;9.73;64.04;102564.66;6099723;22;98777;-36
2024/01/25 08:49:47;;;;;;;12.83;2.77;;;9.50;99.90;;;9.73;64.41;102559.38;6123421;22;99327;-37
2024/01/25 08:52:12;;;;;;;19.03;3.67;;;9.50;99.90;;;9.78;65.15;102566.38;6099017;22;121812;-37
2024/01/25 08:54:38;;;;;;;8.03;3.73;;;9.60;99.90;;;9.85;64.86;102564.63;6074280;22;108764;-37
2024/01/25 08:57:05;;;;;;;15.20;4.93;;;9.70;99.90;;;9.92;64.86;102570.75;6102339;22;98962;-36
2024/01/25 08:59:35;;;;;;;11.93;4.00;;;9.70;99.90;;;9.97;65.17;102563.69;6123174;22;100391;-36
2024/01/25 09:02:01;;;;;;;15.47;4.37;;;9.80;99.90;;;10.01;65.43;102566.34;6064798;22;98926;-37
2024/01/25 09:04:27;;;;;;;14.20;3.33;;;9.90;99.90;;;10.06;65.25;102561.03;6115287;22;107477;-36
2024/01/25 09:06:53;;;;;;;16.00;4.23;;;9.90;99.90;;;10.09;65.69;102555.75;6119581;22;98701;-36
2024/01/25 09:09:18;;;;;;;12.17;4.13;;;10.00;99.90;;;10.16;65.52;102559.25;6095371;22;120779;-37
2024/01/25 09:11:44;;;;;;;19.70;4.73;;;10.00;99.90;;;10.30;64.94;102563.63;6131094;22;126630;-36
2024/01/25 09:14:13;;;;;;;16.17;4.63;;;10.10;99.90;;;10.37;65.01;102564.47;6073191;22;113774;-37
2024/01/25 09:16:39;;;;;;;12.03;4.37;;;10.20;99.90;;;10.49;64.83;102560.91;6071549;22;98418;-36
2024/01/25 09:19:05;;;;;;;20.70;4.67;;;10.30;99.90;;;10.85;62.69;102560.69;6079808;22;99094;-36
2024/01/25 09:21:31;;;;;;;17.13;4.30;;;10.60;99.90;;;10.97;61.91;102557.94;6076411;22;117765;-36
2024/01/25 09:23:56;;;;;;;16.77;4.43;;;10.70;99.90;;;11.03;61.96;102563.19;6116362;22;103688;-38
2024/01/25 09:26:23;;;;;;;21.90;4.80;;;10.80;99.90;;;11.02;63.12;102565.84;6124232;22;107364;-38
2024/01/25 09:28:48;;;;;;;17.33;3.80;;;10.90;99.90;;;11.02;63.28;102576.41;6095546;22;102123;-37
2024/01/25 09:31:14;;;;;;;17.03;5.17;;;10.90;99.90;;;10.99;63.72;102579.97;6124985;22;104413;-37
2024/01/25 09:33:41;;;;;;;20.10;5.57;;;10.90;99.90;;;10.95;64.11;102586.13;6128571;22;101170;-36
2024/01/25 09:36:09;;;;;;;20.13;4.93;;;10.90;99.90;;;11.03;63.66;102594.88;6110975;22;97525;-37
2024/01/25 09:38:35;;;;;;;16.77;4.13;;;10.90;99.90;;;11.25;62.54;102600.00;6073577;22;98303;-38
2024/01/25 09:41:01;;;;;;;19.47;5.50;;;11.00;99.90;;;11.27;62.39;102592.94;6108353;22;117477;-37
2024/01/25 09:43:27;;;;;;;21.70;5.40;;;11.10;99.90;;;11.35;62.62;102584.97;6095259;22;97325;-37
2024/01/25 09:45:54;;;;;;;18.83;5.17;;;11.20;99.90;;;11.33;63.45;102577.06;6110289;22;110549;-37
2024/01/25 09:48:20;;;;;;;24.93;7.37;;;11.20;99.90;;;11.26;63.41;102577.97;6123685;22;99416;-36
2024/01/25 09:50:52;;;;;;;15.23;4.47;;;11.20;99.90;;;11.47;60.68;102585.75;6095784;22;97429;-38
2024/01/25 09:53:22;;;;;;;22.37;5.40;;;11.20;99.90;;;11.70;60.86;102597.84;6107362;22;103342;-35
2024/01/25 09:56:12;;;;;;;25.93;5.57;;;11.50;99.90;;;11.76;60.62;102600.44;6102504;22;97475;-35
2024/01/25 09:58:42;;;;;;;11.40;4.07;;;11.70;99.90;;;11.71;60.10;102589.03;6065585;22;108797;-37
2024/01/25 10:01:10;;;;;;;20.47;5.13;;;11.60;99.90;;;11.82;61.07;102592.47;6105338;22;103044;-36
2024/01/25 10:03:37;;;;;;;25.13;5.43;;;11.60;99.90;;;11.89;59.18;102594.19;6083182;22;98089;-36